sensor_id;sensor_type;location;lat;lon;timestamp;temperature;humidity
758;DHT22;363;48.764;9.172;2023-09-19T00:00:36;18.60;99.90
758;DHT22;363;48.764;9.172;2023-09-19T00:03:02;19.00;99.90
758;DHT22;363;48.764;9.172;2023-09-19T00:05:29;18.60;99.90
758;DHT22;363;48.764;9.172;2023-09-19T00:07:58;18.80;99.90
758;DHT22;363;48.764;9.172;2023-09-19T00:10:25;19.10;99.90
758;DHT22;363;48.764;9.172;2023-09-19T00:12:52;19.10;99.90
758;DHT22;363;48.764;9.172;2023-09-19T00:15:24;18.90;99.90
758;DHT22;363;48.764;9.172;2023-09-19T00:17:51;18.70;99.90
758;DHT22;363;48.764;9.172;2023-09-19T00:20:18;18.60;99.90
758;DHT22;363;48.764;9.172;2023-09-19T00:22:44;19.00;99.90
758;DHT22;363;48.764;9.172;2023-09-19T00:25:10;19.10;99.90
758;DHT22;363;48.764;9.172;2023-09-19T00:27:38;18.80;99.90
758;DHT22;363;48.764;9.172;2023-09-19T00:30:08;18.50;99.90
758;DHT22;363;48.764;9.172;2023-09-19T00:32:40;18.40;99.90
758;DHT22;363;48.764;9.172;2023-09-19T00:35:06;18.80;99.90
758;DHT22;363;48.764;9.172;2023-09-19T00:37:33;18.60;99.90
758;DHT22;363;48.764;9.172;2023-09-19T00:39:58;18.70;99.90
758;DHT22;363;48.764;9.172;2023-09-19T00:42:24;18.60;99.90
758;DHT22;363;48.764;9.172;2023-09-19T00:44:51;18.80;99.90
758;DHT22;363;48.764;9.172;2023-09-19T00:47:17;18.50;99.90
758;DHT22;363;48.764;9.172;2023-09-19T00:49:46;18.90;99.90
758;DHT22;363;48.764;9.172;2023-09-19T00:52:16;18.80;99.90
758;DHT22;363;48.764;9.172;2023-09-19T00:54:46;18.80;99.90
758;DHT22;363;48.764;9.172;2023-09-19T00:57:13;18.70;99.90
758;DHT22;363;48.764;9.172;2023-09-19T00:59:41;18.80;99.90
758;DHT22;363;48.764;9.172;2023-09-19T01:02:08;18.90;99.90
758;DHT22;363;48.764;9.172;2023-09-19T01:04:34;18.70;99.90
758;DHT22;363;48.764;9.172;2023-09-19T01:06:59;18.90;99.90
758;DHT22;363;48.764;9.172;2023-09-19T01:09:25;18.40;99.90
758;DHT22;363;48.764;9.172;2023-09-19T01:11:53;18.80;99.90
758;DHT22;363;48.764;9.172;2023-09-19T01:14:37;18.70;99.90
758;DHT22;363;48.764;9.172;2023-09-19T01:17:14;18.70;99.90
758;DHT22;363;48.764;9.172;2023-09-19T01:23:17;18.40;99.90
758;DHT22;363;48.764;9.172;2023-09-19T01:31:23;18.40;99.90
758;DHT22;363;48.764;9.172;2023-09-19T01:33:54;18.30;99.90
758;DHT22;363;48.764;9.172;2023-09-19T01:36:31;18.60;99.90
758;DHT22;363;48.764;9.172;2023-09-19T01:39:00;18.70;99.90
758;DHT22;363;48.764;9.172;2023-09-19T01:41:52;18.80;99.90
758;DHT22;363;48.764;9.172;2023-09-19T01:44:28;18.70;99.90
758;DHT22;363;48.764;9.172;2023-09-19T01:46:58;18.80;99.90
758;DHT22;363;48.764;9.172;2023-09-19T01:49:39;18.90;99.90
758;DHT22;363;48.764;9.172;2023-09-19T01:52:12;18.50;99.90
758;DHT22;363;48.764;9.172;2023-09-19T01:54:58;18.70;99.90
758;DHT22;363;48.764;9.172;2023-09-19T01:57:29;18.90;99.90
758;DHT22;363;48.764;9.172;2023-09-19T02:00:02;18.90;99.90
758;DHT22;363;48.764;9.172;2023-09-19T02:02:34;19.00;99.90
758;DHT22;363;48.764;9.172;2023-09-19T02:05:00;18.80;99.90
758;DHT22;363;48.764;9.172;2023-09-19T02:07:26;18.90;99.90
758;DHT22;363;48.764;9.172;2023-09-19T02:09:52;18.90;99.90
758;DHT22;363;48.764;9.172;2023-09-19T02:12:18;18.50;99.90
758;DHT22;363;48.764;9.172;2023-09-19T02:14:43;18.50;99.90
758;DHT22;363;48.764;9.172;2023-09-19T02:17:09;18.80;99.90
758;DHT22;363;48.764;9.172;2023-09-19T02:19:36;18.90;99.90
758;DHT22;363;48.764;9.172;2023-09-19T02:22:04;18.60;99.90
758;DHT22;363;48.764;9.172;2023-09-19T02:24:35;18.80;99.90
758;DHT22;363;48.764;9.172;2023-09-19T02:27:00;18.50;99.90
758;DHT22;363;48.764;9.172;2023-09-19T02:29:29;18.60;99.90
758;DHT22;363;48.764;9.172;2023-09-19T02:31:55;18.40;99.90
758;DHT22;363;48.764;9.172;2023-09-19T02:34:21;18.90;99.90
758;DHT22;363;48.764;9.172;2023-09-19T02:36:47;18.50;99.90
758;DHT22;363;48.764;9.172;2023-09-19T02:39:12;18.40;99.90
758;DHT22;363;48.764;9.172;2023-09-19T02:41:38;18.40;99.90
758;DHT22;363;48.764;9.172;2023-09-19T02:44:04;18.40;99.90
758;DHT22;363;48.764;9.172;2023-09-19T02:46:33;18.30;99.90
758;DHT22;363;48.764;9.172;2023-09-19T02:48:59;18.30;99.90
758;DHT22;363;48.764;9.172;2023-09-19T02:51:24;18.30;99.90
758;DHT22;363;48.764;9.172;2023-09-19T02:53:50;18.20;99.90
758;DHT22;363;48.764;9.172;2023-09-19T02:56:18;18.20;99.90
758;DHT22;363;48.764;9.172;2023-09-19T02:58:44;18.20;99.90
758;DHT22;363;48.764;9.172;2023-09-19T03:01:12;18.20;99.90
758;DHT22;363;48.764;9.172;2023-09-19T03:03:38;18.30;99.90
758;DHT22;363;48.764;9.172;2023-09-19T03:06:08;18.10;99.90
758;DHT22;363;48.764;9.172;2023-09-19T03:08:38;18.40;99.90
758;DHT22;363;48.764;9.172;2023-09-19T03:11:10;18.30;99.90
758;DHT22;363;48.764;9.172;2023-09-19T03:13:37;18.30;99.90
758;DHT22;363;48.764;9.172;2023-09-19T03:16:04;18.30;99.90
758;DHT22;363;48.764;9.172;2023-09-19T03:18:32;18.30;99.90
758;DHT22;363;48.764;9.172;2023-09-19T03:20:57;18.40;99.90
758;DHT22;363;48.764;9.172;2023-09-19T03:23:27;18.40;99.90
758;DHT22;363;48.764;9.172;2023-09-19T03:25:54;18.40;99.90
758;DHT22;363;48.764;9.172;2023-09-19T03:28:20;18.40;99.90
758;DHT22;363;48.764;9.172;2023-09-19T03:31:05;18.40;99.90
758;DHT22;363;48.764;9.172;2023-09-19T03:33:32;18.40;99.90
758;DHT22;363;48.764;9.172;2023-09-19T03:35:59;18.50;99.90
758;DHT22;363;48.764;9.172;2023-09-19T03:38:26;18.50;99.90
758;DHT22;363;48.764;9.172;2023-09-19T03:40:52;18.50;99.90
758;DHT22;363;48.764;9.172;2023-09-19T03:43:18;18.40;99.90
758;DHT22;363;48.764;9.172;2023-09-19T03:45:44;19.20;99.90
758;DHT22;363;48.764;9.172;2023-09-19T03:48:12;18.80;99.90
758;DHT22;363;48.764;9.172;2023-09-19T03:50:38;18.80;99.90
758;DHT22;363;48.764;9.172;2023-09-19T03:53:04;18.80;99.90
758;DHT22;363;48.764;9.172;2023-09-19T03:55:29;18.80;99.90
758;DHT22;363;48.764;9.172;2023-09-19T03:57:56;18.60;99.90
758;DHT22;363;48.764;9.172;2023-09-19T04:00:21;19.00;99.90
758;DHT22;363;48.764;9.172;2023-09-19T04:02:49;19.00;99.90
758;DHT22;363;48.764;9.172;2023-09-19T04:05:14;18.50;99.90
758;DHT22;363;48.764;9.172;2023-09-19T04:07:40;18.70;99.90
758;DHT22;363;48.764;9.172;2023-09-19T04:10:06;18.70;99.90
758;DHT22;363;48.764;9.172;2023-09-19T04:12:34;18.40;99.90
758;DHT22;363;48.764;9.172;2023-09-19T04:14:59;18.60;99.90
758;DHT22;363;48.764;9.172;2023-09-19T04:17:25;18.50;99.90
758;DHT22;363;48.764;9.172;2023-09-19T04:19:51;18.00;99.90
758;DHT22;363;48.764;9.172;2023-09-19T04:22:16;18.50;99.90
758;DHT22;363;48.764;9.172;2023-09-19T04:24:42;18.50;99.90
758;DHT22;363;48.764;9.172;2023-09-19T04:27:08;18.50;99.90
758;DHT22;363;48.764;9.172;2023-09-19T04:29:35;18.60;99.90
758;DHT22;363;48.764;9.172;2023-09-19T04:32:00;18.50;99.90
758;DHT22;363;48.764;9.172;2023-09-19T04:34:26;18.40;99.90
758;DHT22;363;48.764;9.172;2023-09-19T04:36:52;18.50;99.90
758;DHT22;363;48.764;9.172;2023-09-19T04:39:18;18.50;99.90
758;DHT22;363;48.764;9.172;2023-09-19T04:41:43;18.70;99.90
758;DHT22;363;48.764;9.172;2023-09-19T04:44:11;18.70;99.90
758;DHT22;363;48.764;9.172;2023-09-19T04:46:37;18.60;99.90
758;DHT22;363;48.764;9.172;2023-09-19T04:49:03;18.30;99.90
758;DHT22;363;48.764;9.172;2023-09-19T04:51:28;18.30;99.90
758;DHT22;363;48.764;9.172;2023-09-19T04:53:59;18.70;99.90
758;DHT22;363;48.764;9.172;2023-09-19T04:56:25;18.60;99.90
758;DHT22;363;48.764;9.172;2023-09-19T04:58:50;18.60;99.90
758;DHT22;363;48.764;9.172;2023-09-19T05:01:16;18.20;99.90
758;DHT22;363;48.764;9.172;2023-09-19T05:03:41;18.00;99.90
758;DHT22;363;48.764;9.172;2023-09-19T05:06:07;18.30;99.90
758;DHT22;363;48.764;9.172;2023-09-19T05:08:33;17.90;99.90
758;DHT22;363;48.764;9.172;2023-09-19T05:11:01;18.20;99.90
758;DHT22;363;48.764;9.172;2023-09-19T05:13:27;18.20;99.90
758;DHT22;363;48.764;9.172;2023-09-19T05:15:52;18.50;99.90
758;DHT22;363;48.764;9.172;2023-09-19T05:18:18;18.00;99.90
758;DHT22;363;48.764;9.172;2023-09-19T05:20:43;18.00;99.90
758;DHT22;363;48.764;9.172;2023-09-19T05:23:09;18.00;99.90
758;DHT22;363;48.764;9.172;2023-09-19T05:25:37;17.60;99.90
758;DHT22;363;48.764;9.172;2023-09-19T05:28:05;17.90;99.90
758;DHT22;363;48.764;9.172;2023-09-19T05:30:31;17.70;99.90
758;DHT22;363;48.764;9.172;2023-09-19T05:32:57;17.50;99.90
758;DHT22;363;48.764;9.172;2023-09-19T05:35:24;17.60;99.90
758;DHT22;363;48.764;9.172;2023-09-19T05:37:54;17.30;99.90
758;DHT22;363;48.764;9.172;2023-09-19T05:40:20;17.30;99.90
758;DHT22;363;48.764;9.172;2023-09-19T05:42:46;17.70;99.90
758;DHT22;363;48.764;9.172;2023-09-19T05:45:13;17.60;99.90
758;DHT22;363;48.764;9.172;2023-09-19T05:47:42;17.40;99.90
758;DHT22;363;48.764;9.172;2023-09-19T05:50:09;17.60;99.90
758;DHT22;363;48.764;9.172;2023-09-19T05:52:36;17.60;99.90
758;DHT22;363;48.764;9.172;2023-09-19T05:55:06;17.50;99.90
758;DHT22;363;48.764;9.172;2023-09-19T05:57:33;17.50;99.90
758;DHT22;363;48.764;9.172;2023-09-19T05:59:59;17.30;99.90
758;DHT22;363;48.764;9.172;2023-09-19T06:02:24;17.50;99.90
758;DHT22;363;48.764;9.172;2023-09-19T06:04:54;17.80;99.90
758;DHT22;363;48.764;9.172;2023-09-19T06:07:22;17.40;99.90
758;DHT22;363;48.764;9.172;2023-09-19T06:09:53;17.50;99.90
758;DHT22;363;48.764;9.172;2023-09-19T06:12:21;17.60;99.90
758;DHT22;363;48.764;9.172;2023-09-19T06:14:47;17.10;99.90
758;DHT22;363;48.764;9.172;2023-09-19T06:17:13;17.40;99.90
758;DHT22;363;48.764;9.172;2023-09-19T06:19:39;17.20;99.90
758;DHT22;363;48.764;9.172;2023-09-19T06:22:05;17.50;99.90
758;DHT22;363;48.764;9.172;2023-09-19T06:24:30;17.50;99.90
758;DHT22;363;48.764;9.172;2023-09-19T06:26:56;17.30;99.90
758;DHT22;363;48.764;9.172;2023-09-19T06:29:21;17.10;99.90
758;DHT22;363;48.764;9.172;2023-09-19T06:31:48;17.10;99.90
758;DHT22;363;48.764;9.172;2023-09-19T06:34:14;17.00;99.90
758;DHT22;363;48.764;9.172;2023-09-19T06:36:41;17.40;99.90
758;DHT22;363;48.764;9.172;2023-09-19T06:39:07;17.00;99.90
758;DHT22;363;48.764;9.172;2023-09-19T06:41:36;17.30;99.90
758;DHT22;363;48.764;9.172;2023-09-19T06:44:03;17.20;99.90
758;DHT22;363;48.764;9.172;2023-09-19T06:46:30;17.30;99.90
758;DHT22;363;48.764;9.172;2023-09-19T06:48:58;17.50;99.90
758;DHT22;363;48.764;9.172;2023-09-19T06:51:23;17.30;99.90
758;DHT22;363;48.764;9.172;2023-09-19T06:53:49;17.20;99.90
758;DHT22;363;48.764;9.172;2023-09-19T06:56:14;17.50;99.90
758;DHT22;363;48.764;9.172;2023-09-19T06:58:40;18.20;99.90
758;DHT22;363;48.764;9.172;2023-09-19T07:01:08;17.90;99.90
758;DHT22;363;48.764;9.172;2023-09-19T07:03:34;17.90;99.90
758;DHT22;363;48.764;9.172;2023-09-19T07:05:59;17.90;99.90
758;DHT22;363;48.764;9.172;2023-09-19T07:08:25;18.80;99.90
758;DHT22;363;48.764;9.172;2023-09-19T07:10:50;19.70;99.90
758;DHT22;363;48.764;9.172;2023-09-19T07:13:19;19.70;99.90
758;DHT22;363;48.764;9.172;2023-09-19T07:15:45;20.30;99.90
758;DHT22;363;48.764;9.172;2023-09-19T07:18:16;21.30;99.90
758;DHT22;363;48.764;9.172;2023-09-19T07:20:43;21.10;99.90
758;DHT22;363;48.764;9.172;2023-09-19T07:23:16;20.60;99.90
758;DHT22;363;48.764;9.172;2023-09-19T07:25:43;20.70;99.90
758;DHT22;363;48.764;9.172;2023-09-19T07:28:09;20.40;99.90
758;DHT22;363;48.764;9.172;2023-09-19T07:30:38;20.50;99.90
758;DHT22;363;48.764;9.172;2023-09-19T07:33:04;20.80;99.90
758;DHT22;363;48.764;9.172;2023-09-19T07:35:30;20.90;99.90
758;DHT22;363;48.764;9.172;2023-09-19T07:37:59;21.10;99.90
758;DHT22;363;48.764;9.172;2023-09-19T07:40:27;21.70;99.90
758;DHT22;363;48.764;9.172;2023-09-19T07:42:54;22.10;99.90
758;DHT22;363;48.764;9.172;2023-09-19T07:45:20;22.90;99.90
758;DHT22;363;48.764;9.172;2023-09-19T07:47:46;22.10;99.90
758;DHT22;363;48.764;9.172;2023-09-19T07:50:13;22.70;99.90
758;DHT22;363;48.764;9.172;2023-09-19T07:52:38;23.40;99.90
758;DHT22;363;48.764;9.172;2023-09-19T07:55:08;24.30;99.40
758;DHT22;363;48.764;9.172;2023-09-19T07:57:35;24.50;98.30
758;DHT22;363;48.764;9.172;2023-09-19T08:00:00;24.80;97.70
758;DHT22;363;48.764;9.172;2023-09-19T08:02:26;25.10;97.10
758;DHT22;363;48.764;9.172;2023-09-19T08:04:53;24.80;96.90
758;DHT22;363;48.764;9.172;2023-09-19T08:07:19;25.10;96.00
758;DHT22;363;48.764;9.172;2023-09-19T08:09:44;25.00;96.00
758;DHT22;363;48.764;9.172;2023-09-19T08:12:12;26.40;95.60
758;DHT22;363;48.764;9.172;2023-09-19T08:14:37;27.00;92.20
758;DHT22;363;48.764;9.172;2023-09-19T08:17:03;26.90;91.40
758;DHT22;363;48.764;9.172;2023-09-19T08:19:31;28.10;89.70
758;DHT22;363;48.764;9.172;2023-09-19T08:21:57;27.70;87.10
758;DHT22;363;48.764;9.172;2023-09-19T08:24:30;27.20;88.50
758;DHT22;363;48.764;9.172;2023-09-19T08:26:56;26.70;90.50
758;DHT22;363;48.764;9.172;2023-09-19T08:29:22;25.90;91.30
758;DHT22;363;48.764;9.172;2023-09-19T08:31:54;25.40;92.80
758;DHT22;363;48.764;9.172;2023-09-19T08:34:19;25.00;93.70
758;DHT22;363;48.764;9.172;2023-09-19T08:36:46;24.30;95.30
758;DHT22;363;48.764;9.172;2023-09-19T08:39:13;23.60;95.90
758;DHT22;363;48.764;9.172;2023-09-19T08:41:39;22.70;97.20
758;DHT22;363;48.764;9.172;2023-09-19T08:44:05;22.30;97.40
758;DHT22;363;48.764;9.172;2023-09-19T08:46:31;22.10;98.00
758;DHT22;363;48.764;9.172;2023-09-19T08:49:04;21.50;99.20
758;DHT22;363;48.764;9.172;2023-09-19T08:51:44;21.20;99.90
758;DHT22;363;48.764;9.172;2023-09-19T08:54:32;21.40;99.90
758;DHT22;363;48.764;9.172;2023-09-19T08:57:02;20.90;99.90
758;DHT22;363;48.764;9.172;2023-09-19T08:59:30;21.20;99.90
758;DHT22;363;48.764;9.172;2023-09-19T09:01:56;21.60;99.90
758;DHT22;363;48.764;9.172;2023-09-19T09:04:23;21.10;99.90
758;DHT22;363;48.764;9.172;2023-09-19T09:06:51;21.20;99.90
758;DHT22;363;48.764;9.172;2023-09-19T09:09:19;21.60;99.90
758;DHT22;363;48.764;9.172;2023-09-19T09:11:45;21.20;99.20
758;DHT22;363;48.764;9.172;2023-09-19T09:14:13;21.70;98.80
758;DHT22;363;48.764;9.172;2023-09-19T09:16:39;21.90;98.50
758;DHT22;363;48.764;9.172;2023-09-19T09:19:05;22.20;97.80
758;DHT22;363;48.764;9.172;2023-09-19T09:21:30;22.20;96.70
758;DHT22;363;48.764;9.172;2023-09-19T09:24:27;21.90;96.00
758;DHT22;363;48.764;9.172;2023-09-19T09:26:54;22.10;95.60
758;DHT22;363;48.764;9.172;2023-09-19T09:29:40;22.20;96.20
758;DHT22;363;48.764;9.172;2023-09-19T09:32:22;22.40;95.60
758;DHT22;363;48.764;9.172;2023-09-19T09:34:53;22.30;95.70
758;DHT22;363;48.764;9.172;2023-09-19T09:37:20;21.90;94.60
758;DHT22;363;48.764;9.172;2023-09-19T09:39:50;22.00;95.00
758;DHT22;363;48.764;9.172;2023-09-19T09:42:38;22.60;94.80
758;DHT22;363;48.764;9.172;2023-09-19T09:45:23;22.10;94.50
758;DHT22;363;48.764;9.172;2023-09-19T09:48:03;22.40;93.40
758;DHT22;363;48.764;9.172;2023-09-19T09:50:36;23.30;91.40
758;DHT22;363;48.764;9.172;2023-09-19T09:53:24;23.90;90.10
758;DHT22;363;48.764;9.172;2023-09-19T09:56:10;24.60;86.60
758;DHT22;363;48.764;9.172;2023-09-19T09:58:50;25.10;84.50
758;DHT22;363;48.764;9.172;2023-09-19T10:01:21;25.40;82.20
758;DHT22;363;48.764;9.172;2023-09-19T10:03:57;25.00;81.00
758;DHT22;363;48.764;9.172;2023-09-19T10:06:23;25.60;83.10
758;DHT22;363;48.764;9.172;2023-09-19T10:11:29;24.10;84.80
758;DHT22;363;48.764;9.172;2023-09-19T10:13:56;24.00;85.30
758;DHT22;363;48.764;9.172;2023-09-19T10:16:23;23.90;85.00
758;DHT22;363;48.764;9.172;2023-09-19T10:18:52;24.10;85.40
758;DHT22;363;48.764;9.172;2023-09-19T10:21:19;24.10;84.60
758;DHT22;363;48.764;9.172;2023-09-19T10:23:48;23.60;85.00
758;DHT22;363;48.764;9.172;2023-09-19T10:26:17;23.50;85.60
758;DHT22;363;48.764;9.172;2023-09-19T10:28:43;23.30;85.50
758;DHT22;363;48.764;9.172;2023-09-19T10:31:13;23.40;86.50
758;DHT22;363;48.764;9.172;2023-09-19T10:33:43;23.00;86.80
758;DHT22;363;48.764;9.172;2023-09-19T10:36:09;23.40;87.60
758;DHT22;363;48.764;9.172;2023-09-19T10:38:38;23.20;88.10
758;DHT22;363;48.764;9.172;2023-09-19T10:41:09;22.80;89.00
758;DHT22;363;48.764;9.172;2023-09-19T10:43:36;24.00;89.30
758;DHT22;363;48.764;9.172;2023-09-19T10:46:07;23.20;87.60
758;DHT22;363;48.764;9.172;2023-09-19T10:48:36;23.30;87.20
758;DHT22;363;48.764;9.172;2023-09-19T10:51:12;23.20;88.40
758;DHT22;363;48.764;9.172;2023-09-19T10:56:21;22.70;88.70
758;DHT22;363;48.764;9.172;2023-09-19T10:58:47;22.80;87.30
758;DHT22;363;48.764;9.172;2023-09-19T11:01:14;22.70;89.30
758;DHT22;363;48.764;9.172;2023-09-19T11:03:41;22.80;88.40
758;DHT22;363;48.764;9.172;2023-09-19T11:06:13;22.90;88.30
758;DHT22;363;48.764;9.172;2023-09-19T11:08:57;23.10;89.20
758;DHT22;363;48.764;9.172;2023-09-19T11:30:48;22.50;88.80
758;DHT22;363;48.764;9.172;2023-09-19T11:33:27;23.00;88.50
758;DHT22;363;48.764;9.172;2023-09-19T11:36:05;22.40;87.50
758;DHT22;363;48.764;9.172;2023-09-19T11:46:55;22.40;83.60
758;DHT22;363;48.764;9.172;2023-09-19T11:49:32;22.50;84.80
758;DHT22;363;48.764;9.172;2023-09-19T11:51:59;22.50;83.90
758;DHT22;363;48.764;9.172;2023-09-19T11:54:31;22.80;83.90
758;DHT22;363;48.764;9.172;2023-09-19T11:56:58;22.70;83.20
758;DHT22;363;48.764;9.172;2023-09-19T11:59:31;23.10;83.60
758;DHT22;363;48.764;9.172;2023-09-19T12:02:01;23.00;82.90
758;DHT22;363;48.764;9.172;2023-09-19T12:07:12;22.90;84.40
758;DHT22;363;48.764;9.172;2023-09-19T12:09:48;23.00;84.30
758;DHT22;363;48.764;9.172;2023-09-19T12:12:27;23.00;83.30
758;DHT22;363;48.764;9.172;2023-09-19T12:14:55;23.10;82.50
758;DHT22;363;48.764;9.172;2023-09-19T12:17:38;23.10;82.70
758;DHT22;363;48.764;9.172;2023-09-19T12:20:05;23.10;82.90
758;DHT22;363;48.764;9.172;2023-09-19T12:22:44;23.20;82.30
758;DHT22;363;48.764;9.172;2023-09-19T12:25:13;23.30;82.20
758;DHT22;363;48.764;9.172;2023-09-19T12:27:46;23.40;83.10
758;DHT22;363;48.764;9.172;2023-09-19T12:30:27;23.70;82.40
758;DHT22;363;48.764;9.172;2023-09-19T12:32:53;23.40;82.00
758;DHT22;363;48.764;9.172;2023-09-19T12:35:29;23.50;82.90
758;DHT22;363;48.764;9.172;2023-09-19T12:38:00;23.90;83.10
758;DHT22;363;48.764;9.172;2023-09-19T12:40:26;23.90;82.40
758;DHT22;363;48.764;9.172;2023-09-19T12:42:55;24.20;82.20
758;DHT22;363;48.764;9.172;2023-09-19T12:45:21;23.90;81.70
758;DHT22;363;48.764;9.172;2023-09-19T12:51:03;23.50;82.10
758;DHT22;363;48.764;9.172;2023-09-19T12:56:05;23.70;81.10
758;DHT22;363;48.764;9.172;2023-09-19T12:58:34;23.80;81.10
758;DHT22;363;48.764;9.172;2023-09-19T13:01:00;23.50;81.60
758;DHT22;363;48.764;9.172;2023-09-19T13:03:28;23.70;81.90
758;DHT22;363;48.764;9.172;2023-09-19T13:06:01;23.90;83.00
758;DHT22;363;48.764;9.172;2023-09-19T13:08:31;23.70;82.10
758;DHT22;363;48.764;9.172;2023-09-19T13:11:12;23.80;79.30
758;DHT22;363;48.764;9.172;2023-09-19T13:16:13;23.80;82.00
758;DHT22;363;48.764;9.172;2023-09-19T13:18:53;24.40;82.30
758;DHT22;363;48.764;9.172;2023-09-19T13:21:34;23.90;81.40
758;DHT22;363;48.764;9.172;2023-09-19T13:24:37;23.90;81.20
758;DHT22;363;48.764;9.172;2023-09-19T13:27:05;24.10;81.60
758;DHT22;363;48.764;9.172;2023-09-19T13:29:32;24.20;78.70
758;DHT22;363;48.764;9.172;2023-09-19T13:31:57;24.50;79.50
758;DHT22;363;48.764;9.172;2023-09-19T13:34:23;24.50;80.80
758;DHT22;363;48.764;9.172;2023-09-19T13:36:49;24.30;81.10
758;DHT22;363;48.764;9.172;2023-09-19T13:39:15;24.50;81.90
758;DHT22;363;48.764;9.172;2023-09-19T13:41:42;23.80;82.00
758;DHT22;363;48.764;9.172;2023-09-19T13:44:08;24.10;82.10
758;DHT22;363;48.764;9.172;2023-09-19T13:46:36;24.30;82.70
758;DHT22;363;48.764;9.172;2023-09-19T13:49:02;23.90;81.90
758;DHT22;363;48.764;9.172;2023-09-19T13:51:31;23.90;81.60
758;DHT22;363;48.764;9.172;2023-09-19T13:53:57;23.80;80.20
758;DHT22;363;48.764;9.172;2023-09-19T13:56:22;23.80;77.60
758;DHT22;363;48.764;9.172;2023-09-19T13:58:48;23.70;77.80
758;DHT22;363;48.764;9.172;2023-09-19T14:01:14;24.00;78.20
758;DHT22;363;48.764;9.172;2023-09-19T14:03:40;23.70;79.70
758;DHT22;363;48.764;9.172;2023-09-19T14:06:06;23.80;80.10
758;DHT22;363;48.764;9.172;2023-09-19T14:08:31;23.50;81.10
758;DHT22;363;48.764;9.172;2023-09-19T14:11:01;23.80;81.90
758;DHT22;363;48.764;9.172;2023-09-19T14:13:30;23.90;81.30
758;DHT22;363;48.764;9.172;2023-09-19T14:15:56;23.50;80.60
758;DHT22;363;48.764;9.172;2023-09-19T14:18:21;23.80;80.70
758;DHT22;363;48.764;9.172;2023-09-19T14:20:47;23.50;80.30
758;DHT22;363;48.764;9.172;2023-09-19T14:23:12;23.90;80.80
758;DHT22;363;48.764;9.172;2023-09-19T14:25:38;23.90;77.40
758;DHT22;363;48.764;9.172;2023-09-19T14:28:05;23.90;77.70
758;DHT22;363;48.764;9.172;2023-09-19T14:30:32;23.60;75.90
758;DHT22;363;48.764;9.172;2023-09-19T14:32:58;23.60;75.40
758;DHT22;363;48.764;9.172;2023-09-19T14:35:24;24.00;76.20
758;DHT22;363;48.764;9.172;2023-09-19T14:37:49;24.00;76.40
758;DHT22;363;48.764;9.172;2023-09-19T14:40:15;23.70;77.50
758;DHT22;363;48.764;9.172;2023-09-19T14:42:43;23.60;75.80
758;DHT22;363;48.764;9.172;2023-09-19T14:45:09;24.00;75.80
758;DHT22;363;48.764;9.172;2023-09-19T14:47:38;23.70;76.00
758;DHT22;363;48.764;9.172;2023-09-19T14:50:04;23.90;76.70
758;DHT22;363;48.764;9.172;2023-09-19T14:52:34;23.90;76.50
758;DHT22;363;48.764;9.172;2023-09-19T14:55:01;23.90;77.30
758;DHT22;363;48.764;9.172;2023-09-19T14:57:27;24.00;75.60
758;DHT22;363;48.764;9.172;2023-09-19T14:59:52;24.00;74.40
758;DHT22;363;48.764;9.172;2023-09-19T15:02:18;24.40;75.00
758;DHT22;363;48.764;9.172;2023-09-19T15:04:44;24.40;75.10
758;DHT22;363;48.764;9.172;2023-09-19T15:07:12;23.80;73.90
758;DHT22;363;48.764;9.172;2023-09-19T15:09:38;24.20;75.40
758;DHT22;363;48.764;9.172;2023-09-19T15:12:03;23.70;75.30
758;DHT22;363;48.764;9.172;2023-09-19T15:14:29;23.90;75.80
758;DHT22;363;48.764;9.172;2023-09-19T15:16:55;23.60;76.50
758;DHT22;363;48.764;9.172;2023-09-19T15:19:20;23.50;75.60
758;DHT22;363;48.764;9.172;2023-09-19T15:21:48;23.50;77.00
758;DHT22;363;48.764;9.172;2023-09-19T15:24:14;23.50;76.90
758;DHT22;363;48.764;9.172;2023-09-19T15:26:40;23.40;77.10
758;DHT22;363;48.764;9.172;2023-09-19T15:29:08;23.70;76.70
758;DHT22;363;48.764;9.172;2023-09-19T15:31:36;23.80;77.00
758;DHT22;363;48.764;9.172;2023-09-19T15:34:04;23.30;77.00
758;DHT22;363;48.764;9.172;2023-09-19T15:36:32;23.20;77.10
758;DHT22;363;48.764;9.172;2023-09-19T15:39:06;23.70;77.90
758;DHT22;363;48.764;9.172;2023-09-19T15:41:38;23.50;76.70
758;DHT22;363;48.764;9.172;2023-09-19T15:44:04;23.60;77.10
758;DHT22;363;48.764;9.172;2023-09-19T15:46:31;23.30;77.40
758;DHT22;363;48.764;9.172;2023-09-19T15:49:00;23.80;78.60
758;DHT22;363;48.764;9.172;2023-09-19T15:51:26;23.30;77.80
758;DHT22;363;48.764;9.172;2023-09-19T15:53:53;23.60;77.30
758;DHT22;363;48.764;9.172;2023-09-19T15:56:20;23.40;77.10
758;DHT22;363;48.764;9.172;2023-09-19T15:58:53;23.40;77.20
758;DHT22;363;48.764;9.172;2023-09-19T16:01:20;23.80;77.40
758;DHT22;363;48.764;9.172;2023-09-19T16:03:48;23.90;77.30
758;DHT22;363;48.764;9.172;2023-09-19T16:06:15;23.60;78.40
758;DHT22;363;48.764;9.172;2023-09-19T16:08:45;23.70;78.50
758;DHT22;363;48.764;9.172;2023-09-19T16:11:12;23.70;78.20
758;DHT22;363;48.764;9.172;2023-09-19T16:13:39;23.30;78.40
758;DHT22;363;48.764;9.172;2023-09-19T16:16:14;23.20;77.80
758;DHT22;363;48.764;9.172;2023-09-19T16:18:52;23.30;77.10
758;DHT22;363;48.764;9.172;2023-09-19T16:21:19;23.20;77.30
758;DHT22;363;48.764;9.172;2023-09-19T16:23:49;23.20;77.90
758;DHT22;363;48.764;9.172;2023-09-19T16:26:16;23.50;79.30
758;DHT22;363;48.764;9.172;2023-09-19T16:28:44;23.50;80.50
758;DHT22;363;48.764;9.172;2023-09-19T16:31:09;23.00;79.00
758;DHT22;363;48.764;9.172;2023-09-19T16:33:36;23.10;79.80
758;DHT22;363;48.764;9.172;2023-09-19T16:36:10;23.30;79.80
758;DHT22;363;48.764;9.172;2023-09-19T16:38:36;23.00;80.30
758;DHT22;363;48.764;9.172;2023-09-19T16:41:05;23.30;81.70
758;DHT22;363;48.764;9.172;2023-09-19T16:43:32;23.00;80.40
758;DHT22;363;48.764;9.172;2023-09-19T16:46:02;23.30;80.90
758;DHT22;363;48.764;9.172;2023-09-19T16:48:29;23.00;80.90
758;DHT22;363;48.764;9.172;2023-09-19T16:51:03;23.30;81.70
758;DHT22;363;48.764;9.172;2023-09-19T16:53:29;22.80;81.60
758;DHT22;363;48.764;9.172;2023-09-19T16:56:00;23.00;82.00
758;DHT22;363;48.764;9.172;2023-09-19T16:58:26;23.60;82.70
758;DHT22;363;48.764;9.172;2023-09-19T17:00:51;22.80;82.90
758;DHT22;363;48.764;9.172;2023-09-19T17:03:17;22.90;83.00
758;DHT22;363;48.764;9.172;2023-09-19T17:05:43;22.60;82.50
758;DHT22;363;48.764;9.172;2023-09-19T17:08:10;22.90;85.90
758;DHT22;363;48.764;9.172;2023-09-19T17:10:36;22.50;84.80
758;DHT22;363;48.764;9.172;2023-09-19T17:13:02;22.50;83.40
758;DHT22;363;48.764;9.172;2023-09-19T17:15:32;22.40;83.90
758;DHT22;363;48.764;9.172;2023-09-19T17:17:58;22.30;83.90
758;DHT22;363;48.764;9.172;2023-09-19T17:20:27;22.60;84.90
758;DHT22;363;48.764;9.172;2023-09-19T17:22:53;22.20;84.60
758;DHT22;363;48.764;9.172;2023-09-19T17:25:25;22.40;84.80
758;DHT22;363;48.764;9.172;2023-09-19T17:27:53;22.00;86.40
758;DHT22;363;48.764;9.172;2023-09-19T17:30:19;22.00;87.10
758;DHT22;363;48.764;9.172;2023-09-19T17:37:58;22.00;88.40
758;DHT22;363;48.764;9.172;2023-09-19T17:40:24;21.80;88.60